Time;durP1;ratioP1;P1;durP2;ratioP2;P2;SDS_P1;SDS_P2;PMS_P1;PMS_P2;Temp;Humidity;BMP_temperature;BMP_pressure;BME280_temperature;BME280_humidity;BME280_pressure;Samples;Min_cycle;Max_cycle;Signal;HPM_P1;HPM_P2
2022/10/30 00:00:56;;;;;;;16.45;8.32;;;;;;;;;;5003544;28;20110;-73
2022/10/30 00:03:26;;;;;;;21.42;8.48;;;;;;;;;;5003539;28;20068;-74
2022/10/30 00:05:57;;;;;;;16.17;7.35;;;;;;;;;;5007479;28;20758;-73
2022/10/30 00:08:34;;;;;;;16.38;7.63;;;;;;;;;;5009323;28;20046;-73
2022/10/30 00:11:19;;;;;;;16.35;8.10;;;;;;;;;;5010529;28;20185;-74
2022/10/30 00:13:54;;;;;;;20.30;8.27;;;;;;;;;;5006923;28;20061;-73
2022/10/30 00:16:22;;;;;;;21.60;7.63;;;;;;;;;;5000601;28;20074;-73
2022/10/30 00:18:49;;;;;;;16.67;8.27;;;;;;;;;;5005583;28;20177;-73
2022/10/30 00:21:17;;;;;;;14.75;7.72;;;;;;;;;;5007140;28;20813;-73
2022/10/30 00:23:46;;;;;;;26.27;8.00;;;;;;;;;;5003146;28;20043;-73
2022/10/30 00:26:24;;;;;;;23.30;8.35;;;;;;;;;;4996500;28;20053;-73
2022/10/30 00:28:53;;;;;;;23.35;8.88;;;;;;;;;;5003066;28;20113;-73
2022/10/30 00:31:30;;;;;;;20.70;8.30;;;;;;;;;;5007641;28;20049;-73
2022/10/30 00:34:01;;;;;;;21.75;8.80;;;;;;;;;;5005900;28;20936;-73
2022/10/30 00:36:31;;;;;;;25.77;8.45;;;;;;;;;;5001020;28;20348;-74
2022/10/30 00:39:02;;;;;;;18.60;8.68;;;;;;;;;;5019552;28;20086;-74
2022/10/30 00:41:33;;;;;;;19.40;8.23;;;;;;;;;;5004628;28;20046;-73
2022/10/30 00:44:37;;;;;;;24.88;8.48;;;;;;;;;;5019028;28;20069;-73
2022/10/30 00:47:24;;;;;;;22.33;8.27;;;;;;;;;;5017958;28;20054;-73
2022/10/30 00:50:13;;;;;;;20.23;8.75;;;;;;;;;;5005720;28;20050;-73
2022/10/30 00:53:00;;;;;;;26.30;7.80;;;;;;;;;;5004054;28;20039;-74
2022/10/30 00:55:39;;;;;;;19.77;8.07;;;;;;;;;;5013309;28;20520;-74
2022/10/30 00:58:08;;;;;;;24.13;9.23;;;;;;;;;;5000089;28;20061;-73
2022/10/30 01:00:37;;;;;;;24.60;8.57;;;;;;;;;;5018652;28;20121;-73
2022/10/30 01:03:12;;;;;;;15.65;8.00;;;;;;;;;;5020850;28;20695;-73
2022/10/30 01:05:40;;;;;;;23.17;9.27;;;;;;;;;;5002243;28;20108;-73
2022/10/30 01:08:10;;;;;;;21.25;8.90;;;;;;;;;;5003063;28;20169;-73
2022/10/30 01:10:47;;;;;;;22.60;8.95;;;;;;;;;;4999952;28;20051;-73
2022/10/30 01:13:15;;;;;;;20.77;9.02;;;;;;;;;;5009252;28;20050;-73
2022/10/30 01:16:02;;;;;;;23.70;9.23;;;;;;;;;;4999846;28;20422;-73
2022/10/30 01:19:01;;;;;;;17.60;8.52;;;;;;;;;;5002477;28;20062;-73
2022/10/30 01:21:47;;;;;;;25.55;8.85;;;;;;;;;;4966176;28;20047;-73
2022/10/30 01:24:27;;;;;;;18.15;8.13;;;;;;;;;;4950532;28;20085;-73
2022/10/30 01:27:00;;;;;;;14.80;8.45;;;;;;;;;;4967866;28;20110;-72
2022/10/30 01:29:36;;;;;;;27.80;9.10;;;;;;;;;;4947510;28;20063;-73
2022/10/30 01:32:12;;;;;;;17.98;8.30;;;;;;;;;;4966489;28;20772;-73
2022/10/30 01:34:46;;;;;;;21.45;8.05;;;;;;;;;;4964066;28;20056;-73
2022/10/30 01:37:19;;;;;;;19.65;8.60;;;;;;;;;;4965653;28;20051;-73
2022/10/30 01:39:50;;;;;;;18.13;8.68;;;;;;;;;;4964724;28;20787;-73
2022/10/30 01:42:35;;;;;;;17.13;9.57;;;;;;;;;;4968326;28;20052;-73
2022/10/30 01:45:05;;;;;;;19.40;8.60;;;;;;;;;;4968330;28;20059;-73
2022/10/30 01:47:36;;;;;;;24.60;8.02;;;;;;;;;;4950853;28;20063;-73
2022/10/30 01:50:33;;;;;;;19.38;8.77;;;;;;;;;;4966611;28;20097;-73
2022/10/30 01:53:25;;;;;;;20.25;8.93;;;;;;;;;;4949967;28;21485;-73
2022/10/30 01:55:53;;;;;;;17.98;9.15;;;;;;;;;;4947001;28;20463;-73
2022/10/30 01:58:23;;;;;;;21.15;9.25;;;;;;;;;;4967451;28;20177;-73
2022/10/30 02:00:54;;;;;;;19.48;9.30;;;;;;;;;;5003393;28;20054;-73
2022/10/30 02:03:24;;;;;;;20.63;9.10;;;;;;;;;;5006100;28;20046;-73
2022/10/30 02:05:53;;;;;;;17.40;8.90;;;;;;;;;;5004892;28;20073;-74
2022/10/30 02:08:23;;;;;;;20.73;9.23;;;;;;;;;;5009548;28;20104;-72
2022/10/30 02:10:58;;;;;;;21.42;9.23;;;;;;;;;;5008053;28;20081;-73
2022/10/30 02:13:25;;;;;;;25.35;9.15;;;;;;;;;;5008410;28;20355;-74
2022/10/30 02:15:53;;;;;;;19.15;9.20;;;;;;;;;;5007226;28;20150;-73
2022/10/30 02:18:20;;;;;;;21.98;9.18;;;;;;;;;;4992670;28;20051;-74
2022/10/30 02:20:48;;;;;;;22.05;8.90;;;;;;;;;;4998235;28;20105;-73
2022/10/30 02:23:24;;;;;;;19.42;8.75;;;;;;;;;;5001060;28;20046;-74
2022/10/30 02:25:54;;;;;;;24.20;9.60;;;;;;;;;;4996813;28;20117;-73
2022/10/30 02:28:25;;;;;;;20.23;8.23;;;;;;;;;;5005529;28;20108;-73
2022/10/30 02:30:52;;;;;;;17.10;8.68;;;;;;;;;;5005185;28;20060;-72
2022/10/30 02:33:20;;;;;;;17.83;8.65;;;;;;;;;;5007785;28;20042;-73
2022/10/30 02:36:16;;;;;;;17.20;8.35;;;;;;;;;;5005231;28;20113;-72
2022/10/30 02:38:46;;;;;;;22.45;9.50;;;;;;;;;;5007292;28;20152;-74
2022/10/30 02:41:17;;;;;;;20.17;8.77;;;;;;;;;;5006440;28;20987;-73
2022/10/30 02:43:44;;;;;;;16.58;7.25;;;;;;;;;;5001852;28;20061;-73
2022/10/30 02:46:12;;;;;;;28.63;8.52;;;;;;;;;;5023759;28;20820;-73
2022/10/30 02:48:46;;;;;;;19.05;8.95;;;;;;;;;;5005818;28;20050;-73
2022/10/30 02:51:17;;;;;;;19.40;8.82;;;;;;;;;;5003797;28;20046;-73
2022/10/30 02:53:46;;;;;;;18.60;9.30;;;;;;;;;;5006329;28;20047;-74
2022/10/30 02:56:23;;;;;;;25.15;8.90;;;;;;;;;;5017524;28;20218;-73
2022/10/30 02:58:51;;;;;;;19.55;9.05;;;;;;;;;;4998884;28;20054;-73
2022/10/30 03:01:22;;;;;;;14.68;7.15;;;;;;;;;;5001600;28;20058;-73
2022/10/30 03:03:52;;;;;;;25.42;8.50;;;;;;;;;;5003602;28;20061;-73
2022/10/30 03:06:20;;;;;;;20.23;8.52;;;;;;;;;;5007417;28;20047;-73
2022/10/30 03:08:57;;;;;;;21.77;8.13;;;;;;;;;;4997921;28;20058;-73
2022/10/30 03:11:44;;;;;;;14.52;6.72;;;;;;;;;;5006793;28;20066;-73
2022/10/30 03:14:17;;;;;;;19.15;9.20;;;;;;;;;;5026061;28;20050;-73
2022/10/30 03:16:55;;;;;;;21.92;9.48;;;;;;;;;;5026610;28;20789;-73
2022/10/30 03:19:25;;;;;;;22.20;8.55;;;;;;;;;;5013185;28;20090;-74
2022/10/30 03:21:54;;;;;;;25.38;8.48;;;;;;;;;;5009709;28;20054;-73
2022/10/30 03:24:24;;;;;;;21.02;9.25;;;;;;;;;;5012848;28;20046;-73
2022/10/30 03:26:55;;;;;;;24.02;9.73;;;;;;;;;;5005573;28;20093;-73
2022/10/30 03:29:43;;;;;;;18.30;8.68;;;;;;;;;;5008061;28;20875;-74
2022/10/30 03:32:21;;;;;;;18.58;9.73;;;;;;;;;;5011696;28;20043;-74
2022/10/30 03:34:52;;;;;;;22.45;9.45;;;;;;;;;;5005893;28;20122;-74
2022/10/30 03:37:23;;;;;;;22.80;8.45;;;;;;;;;;5003847;28;20031;-73
2022/10/30 03:40:39;;;;;;;20.90;9.10;;;;;;;;;;5006005;28;20048;-73
2022/10/30 03:42:53;;;;;;;17.80;9.45;;;;;;;;;;5003456;28;20050;-73
2022/10/30 03:45:27;;;;;;;18.13;9.52;;;;;;;;;;5007688;28;20054;-74
2022/10/30 03:48:11;;;;;;;21.10;9.90;;;;;;;;;;5014394;28;20502;-73
2022/10/30 03:50:41;;;;;;;21.42;9.00;;;;;;;;;;5007224;28;20130;-71
2022/10/30 03:53:15;;;;;;;18.77;9.30;;;;;;;;;;5010284;28;20828;-74
2022/10/30 03:55:42;;;;;;;24.13;9.93;;;;;;;;;;5007048;28;21879;-73
2022/10/30 03:58:12;;;;;;;17.58;9.23;;;;;;;;;;5005727;28;20050;-74
2022/10/30 04:00:47;;;;;;;18.80;9.63;;;;;;;;;;5010207;28;20133;-74
2022/10/30 04:03:15;;;;;;;19.08;9.35;;;;;;;;;;5005066;28;20058;-74
2022/10/30 04:05:43;;;;;;;21.00;9.55;;;;;;;;;;5025128;28;20047;-74
2022/10/30 04:08:17;;;;;;;22.90;9.77;;;;;;;;;;5008192;28;20961;-74
2022/10/30 04:11:01;;;;;;;19.23;9.52;;;;;;;;;;5001009;28;20050;-74
2022/10/30 04:13:52;;;;;;;15.27;8.20;;;;;;;;;;5005207;28;20055;-73
2022/10/30 04:16:29;;;;;;;21.77;9.25;;;;;;;;;;5011673;28;20054;-73
2022/10/30 04:19:02;;;;;;;23.70;9.27;;;;;;;;;;5009413;28;20114;-73
2022/10/30 04:21:33;;;;;;;14.07;8.40;;;;;;;;;;5024098;28;20501;-74
2022/10/30 04:24:05;;;;;;;17.10;8.68;;;;;;;;;;5006492;28;20056;-74
2022/10/30 04:26:36;;;;;;;19.90;8.75;;;;;;;;;;5012978;28;20038;-73
2022/10/30 04:29:23;;;;;;;23.73;9.82;;;;;;;;;;5013245;28;20372;-74
2022/10/30 04:31:51;;;;;;;22.60;9.60;;;;;;;;;;5007889;28;20827;-73
2022/10/30 04:34:21;;;;;;;22.08;10.20;;;;;;;;;;5007594;28;20108;-74
2022/10/30 04:36:54;;;;;;;23.98;10.90;;;;;;;;;;5008272;28;20062;-73
2022/10/30 04:39:38;;;;;;;25.88;10.48;;;;;;;;;;5008128;28;20164;-74
2022/10/30 04:42:12;;;;;;;26.60;10.68;;;;;;;;;;5006381;28;21563;-74
2022/10/30 04:44:45;;;;;;;28.40;10.13;;;;;;;;;;5006619;28;20121;-74
2022/10/30 04:47:21;;;;;;;19.88;9.63;;;;;;;;;;5001402;28;20100;-74
2022/10/30 04:49:52;;;;;;;27.02;10.32;;;;;;;;;;5001182;28;20066;-73
2022/10/30 04:52:25;;;;;;;26.45;11.15;;;;;;;;;;5007467;28;20047;-74
2022/10/30 04:54:59;;;;;;;;;;;;;;;;;;5004380;28;20051;-74
2022/10/30 04:58:02;;;;;;;22.25;10.02;;;;;;;;;;5005857;28;20040;-73
2022/10/30 05:00:32;;;;;;;23.70;10.32;;;;;;;;;;5010660;28;20051;-74
2022/10/30 05:03:05;;;;;;;23.80;10.13;;;;;;;;;;5003354;28;20145;-74
2022/10/30 05:05:36;;;;;;;22.45;10.05;;;;;;;;;;5008020;28;20052;-74
2022/10/30 05:08:23;;;;;;;23.55;10.05;;;;;;;;;;4964849;28;20058;-74
2022/10/30 05:10:57;;;;;;;21.05;10.50;;;;;;;;;;5002941;28;20051;-74
2022/10/30 05:13:33;;;;;;;20.10;10.77;;;;;;;;;;5006965;28;20828;-74
2022/10/30 05:16:06;;;;;;;28.77;10.00;;;;;;;;;;5006915;28;20398;-74
2022/10/30 05:18:37;;;;;;;19.00;9.90;;;;;;;;;;5003501;28;20052;-74
2022/10/30 05:21:05;;;;;;;25.85;9.93;;;;;;;;;;5019640;28;20694;-74
2022/10/30 05:23:33;;;;;;;21.98;10.02;;;;;;;;;;5005976;28;20074;-74
2022/10/30 05:26:03;;;;;;;18.23;10.35;;;;;;;;;;5009938;28;20885;-74
2022/10/30 05:28:31;;;;;;;22.42;9.82;;;;;;;;;;5007154;28;20054;-74
2022/10/30 05:30:59;;;;;;;19.42;10.45;;;;;;;;;;5005910;28;20139;-74
2022/10/30 05:33:39;;;;;;;24.75;9.63;;;;;;;;;;5000546;28;20055;-74
2022/10/30 05:36:07;;;;;;;19.42;8.77;;;;;;;;;;5009463;28;20050;-73
2022/10/30 05:38:42;;;;;;;18.02;8.45;;;;;;;;;;5009582;28;20607;-74
2022/10/30 05:41:21;;;;;;;17.27;8.75;;;;;;;;;;5007138;28;20051;-74
2022/10/30 05:43:54;;;;;;;19.77;9.10;;;;;;;;;;5024476;28;20057;-74
2022/10/30 05:46:26;;;;;;;21.25;9.00;;;;;;;;;;5000330;28;20279;-74
2022/10/30 05:48:55;;;;;;;21.38;9.93;;;;;;;;;;5008899;28;20875;-75
2022/10/30 05:51:35;;;;;;;23.90;9.57;;;;;;;;;;5025334;28;20055;-74
2022/10/30 05:54:09;;;;;;;18.85;9.07;;;;;;;;;;5019744;28;20050;-73
2022/10/30 05:56:59;;;;;;;16.42;8.90;;;;;;;;;;5002526;28;20114;-74
2022/10/30 05:59:28;;;;;;;22.25;9.65;;;;;;;;;;5009360;28;20047;-74
2022/10/30 06:01:57;;;;;;;25.10;11.20;;;;;;;;;;5022323;28;20050;-74
2022/10/30 06:04:35;;;;;;;30.48;11.40;;;;;;;;;;5007851;28;20078;-74
2022/10/30 06:07:10;;;;;;;29.50;12.45;;;;;;;;;;5007984;28;20172;-75
2022/10/30 06:09:46;;;;;;;28.33;13.45;;;;;;;;;;5006358;28;20058;-75
2022/10/30 06:12:16;;;;;;;29.67;13.02;;;;;;;;;;5002136;28;20145;-74
2022/10/30 06:14:43;;;;;;;33.92;12.48;;;;;;;;;;5004135;28;20057;-72
2022/10/30 06:17:10;;;;;;;33.33;13.55;;;;;;;;;;5007087;28;20050;-74
2022/10/30 06:19:38;;;;;;;27.10;11.88;;;;;;;;;;5007597;28;20057;-75
2022/10/30 06:22:12;;;;;;;28.55;12.52;;;;;;;;;;5004883;28;20050;-74
2022/10/30 06:24:41;;;;;;;22.95;11.27;;;;;;;;;;5003013;28;20145;-74
2022/10/30 06:27:08;;;;;;;27.67;11.55;;;;;;;;;;5008600;28;20880;-74
2022/10/30 06:29:38;;;;;;;21.50;11.27;;;;;;;;;;5000289;28;20477;-75
2022/10/30 06:32:05;;;;;;;26.85;11.85;;;;;;;;;;4995828;28;21095;-74
2022/10/30 06:34:34;;;;;;;33.95;11.13;;;;;;;;;;5000368;28;20058;-74
2022/10/30 06:37:02;;;;;;;20.20;9.30;;;;;;;;;;5008419;28;20424;-74
2022/10/30 06:39:29;;;;;;;20.05;9.35;;;;;;;;;;5008957;28;20042;-74
2022/10/30 06:41:56;;;;;;;23.20;11.27;;;;;;;;;;5009977;28;20116;-74
2022/10/30 06:44:23;;;;;;;25.42;10.77;;;;;;;;;;4997522;28;20083;-74
2022/10/30 06:46:52;;;;;;;29.45;11.57;;;;;;;;;;5002598;28;20046;-75
2022/10/30 06:49:27;;;;;;;24.38;10.88;;;;;;;;;;4995893;28;20996;-74
2022/10/30 06:52:05;;;;;;;26.38;11.00;;;;;;;;;;5023573;28;20057;-75
2022/10/30 06:54:35;;;;;;;22.02;10.43;;;;;;;;;;5007984;28;20884;-75
2022/10/30 06:57:03;;;;;;;25.70;11.20;;;;;;;;;;4997246;28;20188;-75
2022/10/30 06:59:39;;;;;;;20.45;10.90;;;;;;;;;;5003054;28;20105;-74
2022/10/30 07:02:08;;;;;;;20.92;9.52;;;;;;;;;;5005132;28;20842;-74
2022/10/30 07:04:40;;;;;;;18.35;8.57;;;;;;;;;;5005455;28;20129;-74
2022/10/30 07:07:13;;;;;;;23.30;8.50;;;;;;;;;;5000089;28;20640;-74
2022/10/30 07:09:45;;;;;;;18.77;8.73;;;;;;;;;;4998745;28;20128;-74
2022/10/30 07:12:15;;;;;;;18.60;8.75;;;;;;;;;;5005885;28;20054;-75
2022/10/30 07:14:42;;;;;;;20.67;9.07;;;;;;;;;;4996675;28;20082;-75
2022/10/30 07:17:09;;;;;;;18.85;8.65;;;;;;;;;;5004908;28;20054;-76
2022/10/30 07:19:36;;;;;;;25.35;9.80;;;;;;;;;;5009694;28;20046;-74
2022/10/30 07:22:03;;;;;;;21.23;10.85;;;;;;;;;;5009973;28;20121;-75
2022/10/30 07:24:33;;;;;;;21.60;10.57;;;;;;;;;;5006005;28;20042;-76
2022/10/30 07:27:13;;;;;;;24.17;9.77;;;;;;;;;;5000630;28;20054;-75
2022/10/30 07:29:40;;;;;;;17.05;9.13;;;;;;;;;;5005713;28;20046;-75
2022/10/30 07:32:14;;;;;;;24.10;10.02;;;;;;;;;;5005189;28;20069;-74
2022/10/30 07:34:46;;;;;;;18.27;9.65;;;;;;;;;;5006692;28;20424;-75
2022/10/30 07:37:27;;;;;;;22.08;10.18;;;;;;;;;;5007854;28;20109;-74
2022/10/30 07:39:55;;;;;;;25.52;10.98;;;;;;;;;;5008979;28;20113;-76
2022/10/30 07:42:22;;;;;;;27.50;11.75;;;;;;;;;;5006642;28;20047;-75
2022/10/30 07:44:53;;;;;;;25.13;11.05;;;;;;;;;;5012169;28;20058;-76
2022/10/30 07:47:29;;;;;;;23.70;11.25;;;;;;;;;;5013381;28;20047;-75
2022/10/30 07:49:56;;;;;;;27.77;12.48;;;;;;;;;;5020406;28;20050;-75
2022/10/30 07:52:23;;;;;;;24.55;12.80;;;;;;;;;;5020249;28;20133;-75
2022/10/30 07:55:11;;;;;;;30.83;13.65;;;;;;;;;;5009069;28;20047;-75
2022/10/30 07:57:40;;;;;;;28.15;13.32;;;;;;;;;;5014730;28;20050;-75
2022/10/30 08:00:14;;;;;;;31.95;13.07;;;;;;;;;;5011653;28;20039;-76
2022/10/30 08:02:47;;;;;;;29.15;13.77;;;;;;;;;;5014890;28;20061;-75
2022/10/30 08:05:27;;;;;;;24.10;12.45;;;;;;;;;;5021793;28;20039;-76
2022/10/30 08:08:08;;;;;;;22.92;12.77;;;;;;;;;;5012055;28;20058;-76
2022/10/30 08:11:06;;;;;;;29.98;13.13;;;;;;;;;;5021597;28;20046;-75
2022/10/30 08:13:32;;;;;;;29.20;12.30;;;;;;;;;;5028982;28;20039;-74
2022/10/30 08:15:59;;;;;;;27.17;12.43;;;;;;;;;;5024067;28;20054;-74
2022/10/30 08:18:26;;;;;;;27.15;12.25;;;;;;;;;;5011067;28;20109;-74
2022/10/30 08:21:02;;;;;;;24.75;13.15;;;;;;;;;;5019194;28;20058;-74
2022/10/30 08:23:32;;;;;;;27.08;13.65;;;;;;;;;;5018223;28;20043;-75
2022/10/30 08:26:06;;;;;;;27.23;12.82;;;;;;;;;;5019409;28;20942;-74
2022/10/30 08:28:33;;;;;;;27.73;12.45;;;;;;;;;;5009754;28;20049;-74
2022/10/30 08:31:01;;;;;;;29.17;12.88;;;;;;;;;;5013691;28;20395;-75
2022/10/30 08:33:46;;;;;;;18.52;10.98;;;;;;;;;;5009971;28;20105;-74
2022/10/30 08:36:25;;;;;;;25.73;11.85;;;;;;;;;;5015114;28;20082;-73
2022/10/30 08:38:52;;;;;;;26.75;12.65;;;;;;;;;;5011430;28;20058;-74
2022/10/30 08:41:31;;;;;;;27.90;11.98;;;;;;;;;;5013952;28;20844;-73
2022/10/30 08:43:58;;;;;;;28.08;11.65;;;;;;;;;;5009845;28;20085;-73
2022/10/30 08:46:25;;;;;;;29.58;12.15;;;;;;;;;;5010013;28;20753;-74
2022/10/30 08:49:00;;;;;;;22.80;11.65;;;;;;;;;;5005542;28;20104;-74
2022/10/30 08:51:32;;;;;;;22.73;11.45;;;;;;;;;;5009944;28;20062;-74
2022/10/30 08:54:09;;;;;;;20.05;11.00;;;;;;;;;;5012778;28;20054;-74
2022/10/30 08:56:42;;;;;;;22.27;11.55;;;;;;;;;;5013685;28;20053;-74
2022/10/30 08:59:12;;;;;;;23.95;11.35;;;;;;;;;;5010135;28;20082;-74
2022/10/30 09:01:50;;;;;;;21.42;10.50;;;;;;;;;;5020679;28;20059;-74
2022/10/30 09:04:23;;;;;;;25.23;10.48;;;;;;;;;;5007407;28;20853;-74
2022/10/30 09:09:47;;;;;;;25.80;10.63;;;;;;;;;;4997444;28;44018;-73
2022/10/30 09:12:17;;;;;;;24.15;10.25;;;;;;;;;;5011677;28;20477;-73
2022/10/30 09:14:45;;;;;;;26.98;11.15;;;;;;;;;;5003582;28;20561;-74
2022/10/30 09:17:13;;;;;;;23.83;9.90;;;;;;;;;;5013623;28;20209;-75
2022/10/30 09:19:41;;;;;;;21.17;10.15;;;;;;;;;;5017188;28;20090;-74
2022/10/30 09:22:14;;;;;;;25.27;10.10;;;;;;;;;;5013181;28;20121;-74
2022/10/30 09:24:47;;;;;;;27.83;10.27;;;;;;;;;;5002210;28;20046;-74
2022/10/30 09:27:18;;;;;;;20.85;9.52;;;;;;;;;;5007586;28;20955;-74
2022/10/30 09:29:46;;;;;;;24.67;9.75;;;;;;;;;;5011966;28;20944;-74
2022/10/30 09:32:13;;;;;;;18.80;9.30;;;;;;;;;;5004154;28;20038;-74
2022/10/30 09:34:40;;;;;;;23.33;10.55;;;;;;;;;;5009336;28;20062;-74
2022/10/30 09:37:09;;;;;;;23.63;10.05;;;;;;;;;;5009397;28;20149;-74
2022/10/30 09:39:52;;;;;;;18.67;10.20;;;;;;;;;;5010450;28;20202;-74
2022/10/30 09:42:40;;;;;;;20.00;8.32;;;;;;;;;;5011928;28;20046;-73
2022/10/30 09:45:20;;;;;;;21.70;9.63;;;;;;;;;;5004549;28;20061;-73
2022/10/30 09:48:05;;;;;;;24.30;9.35;;;;;;;;;;5003564;28;20057;-74
2022/10/30 09:50:41;;;;;;;18.45;8.85;;;;;;;;;;5004883;28;20050;-73
2022/10/30 09:53:27;;;;;;;18.35;8.95;;;;;;;;;;5003719;28;20676;-74
2022/10/30 09:56:00;;;;;;;23.23;8.77;;;;;;;;;;5021614;28;20054;-73
2022/10/30 09:58:35;;;;;;;21.98;9.75;;;;;;;;;;5006091;28;20093;-74
2022/10/30 10:01:08;;;;;;;19.95;9.25;;;;;;;;;;4993019;28;21489;-73
2022/10/30 10:03:47;;;;;;;20.95;9.68;;;;;;;;;;5003635;28;20144;-73
2022/10/30 10:06:16;;;;;;;20.80;9.50;;;;;;;;;;5007947;28;20054;-74
2022/10/30 10:09:05;;;;;;;21.05;9.25;;;;;;;;;;5002388;28;20046;-74
2022/10/30 10:11:45;;;;;;;24.70;9.65;;;;;;;;;;5004536;28;20073;-73
2022/10/30 10:14:17;;;;;;;24.60;9.25;;;;;;;;;;5003328;28;20039;-73
2022/10/30 10:17:02;;;;;;;21.38;8.75;;;;;;;;;;5010337;28;20466;-74
2022/10/30 10:19:35;;;;;;;18.88;8.52;;;;;;;;;;5009107;28;20101;-74
2022/10/30 10:22:06;;;;;;;17.20;9.00;;;;;;;;;;5009597;28;20892;-74
2022/10/30 10:24:35;;;;;;;19.77;8.35;;;;;;;;;;5001840;28;20888;-74
2022/10/30 10:27:11;;;;;;;18.27;8.15;;;;;;;;;;5006504;28;20149;-74
2022/10/30 10:29:53;;;;;;;23.83;8.05;;;;;;;;;;5008584;28;20050;-74
2022/10/30 10:32:23;;;;;;;22.60;8.35;;;;;;;;;;5007771;28;20128;-73
2022/10/30 10:34:53;;;;;;;22.95;8.32;;;;;;;;;;5012366;28;20101;-74
2022/10/30 10:37:21;;;;;;;29.17;8.65;;;;;;;;;;5009412;28;20829;-75
2022/10/30 10:40:02;;;;;;;23.63;8.57;;;;;;;;;;5011565;28;20422;-74
2022/10/30 10:42:38;;;;;;;27.52;9.27;;;;;;;;;;5003119;28;20046;-73
2022/10/30 10:45:12;;;;;;;24.25;8.80;;;;;;;;;;5007496;28;20055;-73
2022/10/30 10:47:59;;;;;;;20.60;8.27;;;;;;;;;;5005617;28;20054;-74
2022/10/30 10:50:35;;;;;;;19.20;8.80;;;;;;;;;;5001943;28;20054;-73
2022/10/30 10:53:25;;;;;;;19.63;8.70;;;;;;;;;;4999124;28;20999;-73
2022/10/30 10:55:53;;;;;;;19.77;7.90;;;;;;;;;;4999491;28;20756;-74
2022/10/30 10:58:31;;;;;;;20.27;8.52;;;;;;;;;;5011989;28;20105;-74
2022/10/30 11:01:02;;;;;;;22.83;8.77;;;;;;;;;;5002095;28;20131;-74
2022/10/30 11:03:34;;;;;;;17.45;8.52;;;;;;;;;;4998740;28;20046;-74
2022/10/30 11:06:10;;;;;;;17.58;8.60;;;;;;;;;;5002645;28;20054;-74
2022/10/30 11:09:00;;;;;;;21.20;8.35;;;;;;;;;;4996266;28;20868;-73
2022/10/30 11:11:30;;;;;;;22.67;8.32;;;;;;;;;;5000738;28;20935;-74
2022/10/30 11:13:58;;;;;;;22.38;9.05;;;;;;;;;;5012003;28;20074;-73
2022/10/30 11:16:32;;;;;;;15.95;8.80;;;;;;;;;;5010492;28;20055;-73
2022/10/30 11:19:02;;;;;;;19.55;8.88;;;;;;;;;;5005940;28;20918;-73
2022/10/30 11:21:53;;;;;;;29.23;8.95;;;;;;;;;;5008777;28;20159;-74
2022/10/30 11:24:35;;;;;;;22.92;9.68;;;;;;;;;;5005977;28;20796;-73
2022/10/30 11:27:22;;;;;;;20.83;9.73;;;;;;;;;;5006782;28;20098;-74
2022/10/30 11:30:12;;;;;;;18.27;9.32;;;;;;;;;;5008821;28;20042;-74
2022/10/30 11:32:42;;;;;;;24.92;9.68;;;;;;;;;;5011110;28;20135;-74
2022/10/30 11:35:09;;;;;;;19.17;9.85;;;;;;;;;;5001522;28;20054;-73
2022/10/30 11:37:43;;;;;;;20.05;9.23;;;;;;;;;;5014185;28;20046;-74
2022/10/30 11:40:12;;;;;;;18.77;8.65;;;;;;;;;;5004098;28;20047;-73
2022/10/30 11:42:42;;;;;;;30.85;9.63;;;;;;;;;;5010399;28;20102;-73
2022/10/30 11:45:18;;;;;;;26.23;10.18;;;;;;;;;;5007396;28;20869;-74
2022/10/30 11:47:49;;;;;;;18.85;8.38;;;;;;;;;;5007481;28;20057;-73
2022/10/30 11:50:34;;;;;;;20.67;9.40;;;;;;;;;;5010660;28;20041;-74
2022/10/30 11:53:24;;;;;;;23.13;9.38;;;;;;;;;;5004757;28;20062;-73
2022/10/30 11:56:02;;;;;;;16.00;8.07;;;;;;;;;;4997706;28;20461;-73
2022/10/30 11:58:32;;;;;;;22.05;8.77;;;;;;;;;;5007412;28;20543;-73
2022/10/30 12:01:04;;;;;;;21.48;8.55;;;;;;;;;;5015460;28;20639;-74
2022/10/30 12:03:52;;;;;;;23.08;8.32;;;;;;;;;;5020750;28;20046;-73
2022/10/30 12:06:38;;;;;;;22.42;9.27;;;;;;;;;;5014912;28;20157;-74
2022/10/30 12:09:20;;;;;;;22.92;8.35;;;;;;;;;;5002497;28;20070;-74
2022/10/30 12:12:09;;;;;;;20.15;9.73;;;;;;;;;;5007854;28;20149;-73
2022/10/30 12:14:42;;;;;;;17.73;9.25;;;;;;;;;;5010310;28;20666;-74
2022/10/30 12:17:13;;;;;;;20.98;8.70;;;;;;;;;;5009798;28;20078;-73
2022/10/30 12:19:45;;;;;;;17.98;9.15;;;;;;;;;;5008992;28;20525;-73
2022/10/30 12:22:23;;;;;;;23.17;8.60;;;;;;;;;;5009743;28;20189;-73
2022/10/30 12:24:54;;;;;;;18.90;9.00;;;;;;;;;;5018356;28;20047;-73
2022/10/30 12:27:24;;;;;;;21.25;9.13;;;;;;;;;;5006115;28;20073;-73
2022/10/30 12:29:51;;;;;;;16.25;8.68;;;;;;;;;;5007690;28;20093;-73
2022/10/30 12:32:34;;;;;;;;;;;;;;;;;;5010001;28;20775;-73
2022/10/30 12:35:14;;;;;;;20.90;8.07;;;;;;;;;;5000252;28;42754;-73
2022/10/30 12:37:43;;;;;;;18.88;7.88;;;;;;;;;;5009471;28;20050;-73
2022/10/30 12:40:16;;;;;;;21.95;8.60;;;;;;;;;;5015352;28;20051;-73
2022/10/30 12:42:43;;;;;;;;;;;;;;;;;;5006657;28;20223;-74
2022/10/30 12:45:10;;;;;;;26.65;8.43;;;;;;;;;;5004510;28;44666;-72
2022/10/30 12:47:41;;;;;;;19.77;7.78;;;;;;;;;;5011011;28;20053;-73
2022/10/30 12:50:29;;;;;;;19.08;8.40;;;;;;;;;;5006104;28;20098;-73
2022/10/30 12:53:00;;;;;;;22.40;8.38;;;;;;;;;;5004645;28;20066;-73
2022/10/30 12:55:41;;;;;;;19.60;7.90;;;;;;;;;;5007258;28;20819;-73
2022/10/30 12:58:36;;;;;;;26.08;8.68;;;;;;;;;;5005399;28;20116;-74
2022/10/30 13:01:25;;;;;;;21.48;9.27;;;;;;;;;;5005101;28;20061;-73
2022/10/30 13:04:10;;;;;;;17.52;8.20;;;;;;;;;;4998885;28;20507;-74
2022/10/30 13:06:41;;;;;;;22.42;8.98;;;;;;;;;;5004028;28;20101;-73
2022/10/30 13:09:13;;;;;;;22.45;9.68;;;;;;;;;;5007951;28;20054;-73
2022/10/30 13:11:47;;;;;;;31.90;8.70;;;;;;;;;;5002457;28;20057;-72
2022/10/30 13:14:28;;;;;;;19.33;8.68;;;;;;;;;;5003826;28;20050;-74
2022/10/30 13:16:56;;;;;;;22.58;8.90;;;;;;;;;;5003192;28;20894;-73
2022/10/30 13:19:27;;;;;;;19.65;9.25;;;;;;;;;;5007260;28;20081;-74
2022/10/30 13:21:57;;;;;;;14.85;8.73;;;;;;;;;;5009256;28;20910;-72
2022/10/30 13:24:24;;;;;;;23.20;9.52;;;;;;;;;;5002552;28;20105;-73
2022/10/30 13:27:07;;;;;;;19.13;9.00;;;;;;;;;;5003109;28;20046;-73
2022/10/30 13:29:49;;;;;;;22.10;9.95;;;;;;;;;;5006179;28;20601;-73
2022/10/30 13:32:16;;;;;;;26.20;10.32;;;;;;;;;;5003127;28;20054;-72
2022/10/30 13:35:03;;;;;;;19.58;9.32;;;;;;;;;;5001658;28;20069;-73
2022/10/30 13:37:30;;;;;;;22.95;9.45;;;;;;;;;;4998249;28;21025;-72
2022/10/30 13:40:16;;;;;;;22.80;10.88;;;;;;;;;;5002083;28;20054;-73
2022/10/30 13:42:50;;;;;;;26.13;10.73;;;;;;;;;;5004597;28;20086;-73
2022/10/30 13:45:29;;;;;;;24.25;10.27;;;;;;;;;;5003470;28;20058;-72
2022/10/30 13:48:26;;;;;;;26.50;10.68;;;;;;;;;;5005127;28;20890;-72
2022/10/30 13:51:15;;;;;;;19.80;10.50;;;;;;;;;;5002371;28;20050;-72
2022/10/30 13:53:46;;;;;;;25.40;10.45;;;;;;;;;;4999937;28;20054;-73
2022/10/30 13:56:24;;;;;;;22.27;10.45;;;;;;;;;;5005203;28;20054;-73
2022/10/30 13:59:08;;;;;;;19.20;9.68;;;;;;;;;;5020177;28;20888;-73
2022/10/30 14:01:42;;;;;;;20.02;10.90;;;;;;;;;;5005389;28;20050;-73
2022/10/30 14:04:14;;;;;;;22.02;10.77;;;;;;;;;;5006900;28;20046;-73
2022/10/30 14:06:50;;;;;;;18.20;9.38;;;;;;;;;;5002884;28;20058;-72
2022/10/30 14:09:22;;;;;;;20.95;10.77;;;;;;;;;;5001594;28;20132;-73
2022/10/30 14:11:52;;;;;;;23.50;10.88;;;;;;;;;;4993861;28;20121;-73
2022/10/30 14:14:30;;;;;;;22.02;11.15;;;;;;;;;;5006658;28;20535;-74
2022/10/30 14:17:18;;;;;;;23.63;9.90;;;;;;;;;;5002851;28;20047;-73
2022/10/30 14:20:04;;;;;;;23.10;11.70;;;;;;;;;;4999799;28;20864;-73
2022/10/30 14:22:40;;;;;;;29.40;13.45;;;;;;;;;;5020234;28;20887;-73
2022/10/30 14:25:14;;;;;;;31.02;12.07;;;;;;;;;;5006125;28;20523;-74
2022/10/30 14:27:44;;;;;;;29.88;11.23;;;;;;;;;;5001796;28;20061;-73
2022/10/30 14:30:19;;;;;;;25.83;11.50;;;;;;;;;;5008711;28;20057;-73
2022/10/30 14:32:50;;;;;;;20.17;9.85;;;;;;;;;;5005153;28;20050;-74
2022/10/30 14:35:38;;;;;;;21.42;9.65;;;;;;;;;;5000607;28;20129;-73
2022/10/30 14:38:10;;;;;;;23.05;10.43;;;;;;;;;;5018172;28;20053;-73
2022/10/30 14:40:41;;;;;;;22.92;10.45;;;;;;;;;;5009435;28;20050;-73
2022/10/30 14:43:20;;;;;;;22.42;9.50;;;;;;;;;;4999048;28;20110;-72
2022/10/30 14:46:01;;;;;;;26.65;10.32;;;;;;;;;;5005389;28;20848;-73
2022/10/30 14:48:32;;;;;;;30.50;11.60;;;;;;;;;;5008418;28;20035;-72
2022/10/30 14:51:11;;;;;;;25.55;11.18;;;;;;;;;;5007116;28;20051;-72
2022/10/30 14:53:45;;;;;;;25.55;11.48;;;;;;;;;;5011887;28;20090;-72
2022/10/30 14:56:31;;;;;;;24.08;10.80;;;;;;;;;;5004356;28;20046;-73
2022/10/30 14:59:13;;;;;;;27.33;10.57;;;;;;;;;;5001601;28;20130;-73
2022/10/30 15:01:59;;;;;;;24.92;11.93;;;;;;;;;;5001949;28;20090;-73
2022/10/30 15:04:39;;;;;;;27.67;12.27;;;;;;;;;;5007034;28;20065;-72
2022/10/30 15:07:23;;;;;;;27.92;12.25;;;;;;;;;;5006564;28;20050;-73
2022/10/30 15:09:51;;;;;;;26.75;11.57;;;;;;;;;;5005623;28;20055;-72
2022/10/30 15:12:33;;;;;;;19.58;11.40;;;;;;;;;;5003362;28;20406;-72